Time;durP1;ratioP1;P1;durP2;ratioP2;P2;SDS_P1;SDS_P2;PMS_P1;PMS_P2;Temp;Humidity;BMP_temperature;BMP_pressure;BME280_temperature;BME280_humidity;BME280_pressure;Samples;Min_cycle;Max_cycle;Signal;HPM_P1;HPM_P2
2023/08/25 00:01:17;;;;;;;;;;;22.10;58.10;;;;;;5032200;28;19975;-71
2023/08/25 00:03:44;;;;;;;;;;;22.10;58.50;;;;;;5032365;28;19913;-72
2023/08/25 00:06:11;;;;;;;;;;;22.30;57.60;;;;;;5032573;28;19910;-70
2023/08/25 00:08:37;;;;;;;;;;;22.80;56.60;;;;;;5031220;28;19909;-70
2023/08/25 00:11:04;;;;;;;;;;;23.00;56.60;;;;;;5036924;28;19932;-70
2023/08/25 00:13:32;;;;;;;;;;;23.80;53.90;;;;;;5036443;28;19915;-71
2023/08/25 00:15:59;;;;;;;;;;;23.50;55.60;;;;;;5036527;28;19909;-71
2023/08/25 00:18:27;;;;;;;;;;;23.70;54.10;;;;;;5036710;28;19996;-71
2023/08/25 00:20:53;;;;;;;;;;;24.70;51.20;;;;;;5036278;28;19928;-70
2023/08/25 00:23:20;;;;;;;;;;;24.40;51.10;;;;;;5036420;28;19913;-72
2023/08/25 00:25:47;;;;;;;;;;;24.40;51.10;;;;;;5036563;28;19909;-71
2023/08/25 00:28:14;;;;;;;;;;;24.50;51.50;;;;;;5036494;28;19909;-71
2023/08/25 00:30:40;;;;;;;;;;;24.70;49.90;;;;;;5036313;28;19920;-71
2023/08/25 00:33:07;;;;;;;;;;;24.60;49.90;;;;;;5036359;28;19909;-71
2023/08/25 00:35:34;;;;;;;;;;;24.70;50.20;;;;;;5035502;28;20000;-72
2023/08/25 00:38:00;;;;;;;;;;;24.50;51.50;;;;;;5035940;28;20324;-71
2023/08/25 00:40:27;;;;;;;;;;;24.60;49.90;;;;;;5036373;28;19909;-72
2023/08/25 00:42:54;;;;;;;;;;;24.80;50.40;;;;;;5051457;28;19913;-72
2023/08/25 00:45:22;;;;;;;;;;;24.50;50.90;;;;;;5035530;28;19964;-72
2023/08/25 00:47:48;;;;;;;;;;;24.80;51.40;;;;;;5036087;28;20287;-72
2023/08/25 00:50:15;;;;;;;;;;;25.50;48.50;;;;;;5036010;28;19955;-72
2023/08/25 00:52:42;;;;;;;;;;;25.40;48.80;;;;;;5035745;28;19955;-72
2023/08/25 00:55:09;;;;;;;;;;;25.50;50.40;;;;;;5035751;28;19917;-72
2023/08/25 00:57:36;;;;;;;;;;;26.10;47.70;;;;;;5035927;28;19916;-72
2023/08/25 01:00:04;;;;;;;;;;;25.40;48.40;;;;;;5035999;28;19920;-72
2023/08/25 01:02:31;;;;;;;;;;;25.50;47.80;;;;;;5036215;28;19924;-72
2023/08/25 01:04:58;;;;;;;;;;;25.70;48.00;;;;;;5034823;28;19909;-72
2023/08/25 01:07:25;;;;;;;;;;;26.10;47.30;;;;;;5016109;28;19917;-72
2023/08/25 01:09:51;;;;;;;;;;;25.90;48.00;;;;;;5015994;28;19910;-72
2023/08/25 01:12:44;;;;;;;;;;;26.20;45.30;;;;;;5026113;28;19953;-72
2023/08/25 01:15:20;;;;;;;;;;;26.30;44.50;;;;;;5031718;28;20024;-72
2023/08/25 01:17:54;;;;;;;;;;;25.60;43.50;;;;;;5035774;28;19917;-72
2023/08/25 01:20:22;;;;;;;;;;;25.90;44.20;;;;;;5035073;28;20370;-72
2023/08/25 01:23:13;;;;;;;;;;;25.90;45.00;;;;;;5035057;28;19920;-71
2023/08/25 01:25:41;;;;;;;;;;;25.80;46.10;;;;;;5047258;28;19913;-72
2023/08/25 01:28:07;;;;;;;;;;;26.70;42.90;;;;;;5054105;28;19920;-72
2023/08/25 01:30:35;;;;;;;;;;;26.80;43.90;;;;;;5035154;28;19913;-72
2023/08/25 01:33:05;;;;;;;;;;;27.40;42.40;;;;;;5035392;28;20004;-72
2023/08/25 01:35:41;;;;;;;;;;;27.60;41.10;;;;;;5034530;28;20012;-72
2023/08/25 01:38:25;;;;;;;;;;;27.50;42.20;;;;;;5034881;28;19948;-72
2023/08/25 01:40:59;;;;;;;;;;;27.70;40.40;;;;;;5035092;28;19917;-72
2023/08/25 01:43:28;;;;;;;;;;;28.00;38.30;;;;;;5035207;28;19928;-71
2023/08/25 01:45:56;;;;;;;;;;;28.50;36.80;;;;;;5035231;28;19913;-71
2023/08/25 01:48:24;;;;;;;;;;;28.00;37.50;;;;;;5035026;28;20262;-72
2023/08/25 01:50:50;;;;;;;;;;;27.70;37.30;;;;;;5034617;28;19987;-72
2023/08/25 01:53:17;;;;;;;;;;;27.60;38.30;;;;;;5035004;28;19909;-72
2023/08/25 01:55:44;;;;;;;;;;;27.70;39.90;;;;;;5034537;28;19944;-72
2023/08/25 01:58:10;;;;;;;;;;;27.50;39.70;;;;;;5034658;28;19913;-72
2023/08/25 02:00:37;;;;;;;;;;;27.60;37.00;;;;;;5033112;28;19924;-72
2023/08/25 02:03:04;;;;;;;;;;;27.60;37.60;;;;;;5034388;28;19971;-72
2023/08/25 02:05:30;;;;;;;;;;;27.60;36.50;;;;;;5033996;28;20362;-72
2023/08/25 02:07:57;;;;;;;;;;;27.60;36.60;;;;;;5033630;28;20263;-73
2023/08/25 02:10:24;;;;;;;;;;;27.70;36.80;;;;;;5034542;28;19944;-72
2023/08/25 02:12:50;;;;;;;;;;;27.80;36.80;;;;;;5034178;28;19909;-73
2023/08/25 02:15:17;;;;;;;;;;;27.80;36.10;;;;;;5034252;28;20381;-73
2023/08/25 02:17:44;;;;;;;;;;;27.60;36.50;;;;;;5034121;28;20454;-73
2023/08/25 02:20:12;;;;;;;;;;;27.80;36.10;;;;;;5033857;28;20339;-73
2023/08/25 02:22:39;;;;;;;;;;;27.70;35.70;;;;;;5034111;28;20259;-72
2023/08/25 02:25:06;;;;;;;;;;;27.70;34.20;;;;;;5041671;28;19970;-73
2023/08/25 02:27:32;;;;;;;;;;;27.40;36.50;;;;;;5053806;28;20015;-73
2023/08/25 02:29:59;;;;;;;;;;;27.50;36.40;;;;;;5045128;28;19913;-72
2023/08/25 02:32:26;;;;;;;;;;;27.60;36.10;;;;;;5033659;28;19909;-72
2023/08/25 02:34:52;;;;;;;;;;;27.50;34.90;;;;;;5032386;28;19924;-72
2023/08/25 02:37:19;;;;;;;;;;;27.40;34.90;;;;;;5033570;28;20352;-72
2023/08/25 02:39:45;;;;;;;;;;;27.40;34.20;;;;;;5033820;28;19916;-72
2023/08/25 02:42:12;;;;;;;;;;;27.40;37.20;;;;;;5032265;28;19939;-72
2023/08/25 02:44:39;;;;;;;;;;;27.60;36.20;;;;;;5032911;28;19925;-72
2023/08/25 02:47:06;;;;;;;;;;;27.70;36.70;;;;;;5033301;28;20274;-72
2023/08/25 02:49:32;;;;;;;;;;;27.90;35.30;;;;;;5032563;28;19909;-72
2023/08/25 02:52:00;;;;;;;;;;;28.00;33.50;;;;;;5033683;28;19944;-72
2023/08/25 02:54:27;;;;;;;;;;;27.60;33.50;;;;;;5032865;28;19909;-72
2023/08/25 02:56:53;;;;;;;;;;;27.40;34.50;;;;;;5033461;28;20020;-72
2023/08/25 02:59:20;;;;;;;;;;;27.40;33.90;;;;;;5031620;28;19940;-72
2023/08/25 03:01:47;;;;;;;;;;;27.00;34.00;;;;;;5033409;28;20015;-72
2023/08/25 03:04:13;;;;;;;;;;;26.80;32.70;;;;;;5032992;28;19909;-73
2023/08/25 03:06:40;;;;;;;;;;;26.60;32.40;;;;;;5033212;28;20385;-72
2023/08/25 03:09:07;;;;;;;;;;;26.20;32.80;;;;;;5033206;28;19909;-72
2023/08/25 03:11:33;;;;;;;;;;;26.30;33.30;;;;;;5032940;28;19909;-73
2023/08/25 03:14:00;;;;;;;;;;;25.90;33.00;;;;;;5032576;28;19921;-73
2023/08/25 03:16:27;;;;;;;;;;;26.20;35.80;;;;;;5032104;28;19909;-72
2023/08/25 03:18:53;;;;;;;;;;;26.70;34.50;;;;;;5033596;28;19917;-72
2023/08/25 03:21:20;;;;;;;;;;;26.90;32.10;;;;;;5032953;28;19996;-73
2023/08/25 03:23:47;;;;;;;;;;;26.80;33.80;;;;;;5032926;28;19916;-72
2023/08/25 03:26:13;;;;;;;;;;;26.90;34.30;;;;;;5050656;28;20368;-73
2023/08/25 03:28:40;;;;;;;;;;;26.90;34.00;;;;;;5038750;28;20385;-72
2023/08/25 03:31:07;;;;;;;;;;;27.30;32.00;;;;;;5033517;28;19909;-72
2023/08/25 03:33:33;;;;;;;;;;;27.50;33.10;;;;;;5033031;28;19910;-72
2023/08/25 03:36:00;;;;;;;;;;;27.20;33.90;;;;;;5032787;28;20366;-72
2023/08/25 03:38:27;;;;;;;;;;;26.90;34.60;;;;;;5032739;28;19967;-73
2023/08/25 03:41:00;;;;;;;;;;;26.60;34.20;;;;;;5032624;28;19917;-71
2023/08/25 03:43:26;;;;;;;;;;;26.10;34.20;;;;;;5031959;28;20347;-72
2023/08/25 03:45:53;;;;;;;;;;;26.00;34.60;;;;;;5032689;28;19932;-72
2023/08/25 03:48:20;;;;;;;;;;;26.00;34.20;;;;;;5032608;28;19920;-72
2023/08/25 03:50:47;;;;;;;;;;;25.50;33.70;;;;;;5032759;28;19917;-72
2023/08/25 03:53:14;;;;;;;;;;;25.30;34.60;;;;;;5032727;28;19909;-72
2023/08/25 03:55:41;;;;;;;;;;;25.60;35.50;;;;;;5032259;28;20325;-73
2023/08/25 03:58:07;;;;;;;;;;;25.80;36.50;;;;;;5032524;28;19967;-73
2023/08/25 04:00:34;;;;;;;;;;;25.80;36.50;;;;;;5032918;28;19916;-73
2023/08/25 04:03:00;;;;;;;;;;;26.20;34.60;;;;;;5032551;28;20003;-72
2023/08/25 04:05:27;;;;;;;;;;;26.20;33.60;;;;;;5031898;28;19916;-73
2023/08/25 04:07:55;;;;;;;;;;;26.30;34.70;;;;;;5033026;28;20381;-73
2023/08/25 04:10:23;;;;;;;;;;;26.20;34.00;;;;;;5031023;28;19963;-73
2023/08/25 04:12:49;;;;;;;;;;;26.40;34.30;;;;;;5032411;28;19952;-73
2023/08/25 04:15:16;;;;;;;;;;;26.30;34.30;;;;;;5032297;28;19917;-73
2023/08/25 04:17:43;;;;;;;;;;;26.00;34.40;;;;;;5031248;28;20466;-73
2023/08/25 04:20:10;;;;;;;;;;;25.60;34.40;;;;;;5032449;28;19970;-73
2023/08/25 04:22:36;;;;;;;;;;;25.60;33.70;;;;;;5032537;28;20290;-73
2023/08/25 04:25:04;;;;;;;;;;;25.50;33.90;;;;;;5038779;28;19917;-73
2023/08/25 04:27:31;;;;;;;;;;;25.50;33.60;;;;;;5052308;28;19929;-73
2023/08/25 04:29:57;;;;;;;;;;;25.30;34.20;;;;;;5035522;28;19909;-73
2023/08/25 04:32:24;;;;;;;;;;;25.50;34.90;;;;;;5032323;28;20263;-73
2023/08/25 04:34:51;;;;;;;;;;;25.50;34.30;;;;;;5032196;28;19909;-73
2023/08/25 04:37:17;;;;;;;;;;;25.50;34.50;;;;;;5032288;28;19916;-72
2023/08/25 04:39:44;;;;;;;;;;;25.50;33.90;;;;;;5032210;28;20410;-72
2023/08/25 04:42:11;;;;;;;;;;;25.30;35.40;;;;;;5032569;28;19940;-70
2023/08/25 04:44:37;;;;;;;;;;;25.20;34.70;;;;;;5031711;28;19964;-72
2023/08/25 04:47:04;;;;;;;;;;;25.10;34.30;;;;;;5032249;28;19978;-72
2023/08/25 04:49:31;;;;;;;;;;;25.00;34.20;;;;;;5032213;28;19909;-72
2023/08/25 04:51:58;;;;;;;;;;;24.60;34.70;;;;;;5032001;28;19916;-72
2023/08/25 04:54:25;;;;;;;;;;;24.50;35.30;;;;;;5031661;28;19913;-73
2023/08/25 04:56:52;;;;;;;;;;;24.70;35.40;;;;;;5034111;28;19909;-72
2023/08/25 04:59:18;;;;;;;;;;;24.90;35.30;;;;;;5035610;28;19948;-72
2023/08/25 05:01:45;;;;;;;;;;;24.80;34.60;;;;;;5035653;28;20393;-73
2023/08/25 05:04:12;;;;;;;;;;;24.80;36.30;;;;;;5035304;28;19910;-72
2023/08/25 05:06:38;;;;;;;;;;;24.70;35.70;;;;;;5034272;28;19909;-72
2023/08/25 05:09:05;;;;;;;;;;;24.70;35.80;;;;;;5035583;28;19913;-72
2023/08/25 05:11:34;;;;;;;;;;;24.60;35.90;;;;;;5035503;28;20016;-72
2023/08/25 05:14:01;;;;;;;;;;;24.40;37.60;;;;;;5035663;28;19959;-72
2023/08/25 05:16:27;;;;;;;;;;;24.40;38.90;;;;;;5035288;28;19985;-72
2023/08/25 05:18:54;;;;;;;;;;;24.40;38.60;;;;;;5035275;28;19968;-72
2023/08/25 05:21:20;;;;;;;;;;;24.40;38.50;;;;;;5033551;28;19921;-72
2023/08/25 05:23:48;;;;;;;;;;;24.30;38.30;;;;;;5035153;28;19920;-72
2023/08/25 05:26:15;;;;;;;;;;;24.20;38.80;;;;;;5051176;28;19909;-72
2023/08/25 05:28:41;;;;;;;;;;;24.00;39.10;;;;;;5035189;28;19955;-72
2023/08/25 05:31:08;;;;;;;;;;;24.00;39.40;;;;;;5035063;28;19909;-72
2023/08/25 05:33:35;;;;;;;;;;;23.90;39.70;;;;;;5034673;28;19910;-72
2023/08/25 05:36:02;;;;;;;;;;;23.90;39.50;;;;;;5034857;28;19909;-72
2023/08/25 05:38:29;;;;;;;;;;;23.70;39.50;;;;;;5034903;28;19978;-72
2023/08/25 05:40:55;;;;;;;;;;;23.70;40.10;;;;;;5034810;28;19926;-72
2023/08/25 05:43:22;;;;;;;;;;;23.80;42.30;;;;;;5034365;28;20007;-72
2023/08/25 05:45:49;;;;;;;;;;;23.70;44.60;;;;;;5034337;28;19983;-72
2023/08/25 05:48:15;;;;;;;;;;;23.40;45.90;;;;;;5034498;28;19916;-72
2023/08/25 05:50:42;;;;;;;;;;;23.20;46.60;;;;;;5034827;28;20286;-73
2023/08/25 05:53:10;;;;;;;;;;;23.20;46.70;;;;;;5034541;28;20366;-73
2023/08/25 05:55:36;;;;;;;;;;;23.10;47.30;;;;;;5034287;28;19909;-73
2023/08/25 05:58:03;;;;;;;;;;;23.00;47.90;;;;;;5034458;28;20280;-72
2023/08/25 06:00:31;;;;;;;;;;;22.80;49.40;;;;;;5033958;28;19913;-73
2023/08/25 06:02:58;;;;;;;;;;;22.70;50.10;;;;;;5033556;28;19916;-72
2023/08/25 06:05:25;;;;;;;;;;;22.60;50.40;;;;;;5032629;28;19924;-72
2023/08/25 06:07:51;;;;;;;;;;;22.40;50.20;;;;;;5033964;28;19980;-73
2023/08/25 06:10:18;;;;;;;;;;;22.40;51.40;;;;;;5034187;28;19913;-73
2023/08/25 06:12:45;;;;;;;;;;;22.30;51.70;;;;;;5034717;28;19919;-73
2023/08/25 06:15:12;;;;;;;;;;;22.20;52.50;;;;;;5033479;28;19909;-73
2023/08/25 06:17:38;;;;;;;;;;;22.10;53.10;;;;;;5033851;28;20016;-73
2023/08/25 06:20:06;;;;;;;;;;;22.10;54.30;;;;;;5034262;28;20012;-72
2023/08/25 06:22:33;;;;;;;;;;;22.00;54.40;;;;;;5034058;28;19917;-72
2023/08/25 06:24:59;;;;;;;;;;;21.90;54.20;;;;;;5040835;28;20341;-73
2023/08/25 06:27:26;;;;;;;;;;;21.90;54.40;;;;;;5049398;28;19919;-73
2023/08/25 06:29:53;;;;;;;;;;;21.80;54.30;;;;;;5033902;28;19909;-72
2023/08/25 06:32:19;;;;;;;;;;;21.60;55.50;;;;;;5032882;28;19920;-72
2023/08/25 06:34:50;;;;;;;;;;;21.40;57.60;;;;;;5033253;28;19983;-72
2023/08/25 06:37:17;;;;;;;;;;;21.20;59.40;;;;;;5033994;28;19909;-72
2023/08/25 06:39:45;;;;;;;;;;;21.10;60.20;;;;;;5033887;28;19909;-72
2023/08/25 06:42:13;;;;;;;;;;;21.00;60.70;;;;;;5033616;28;19917;-73
2023/08/25 06:44:40;;;;;;;;;;;20.80;61.30;;;;;;5032824;28;20301;-73
2023/08/25 06:47:07;;;;;;;;;;;20.80;61.70;;;;;;5033997;28;20270;-72
2023/08/25 06:49:33;;;;;;;;;;;20.60;61.90;;;;;;5033831;28;20382;-72
2023/08/25 06:52:00;;;;;;;;;;;20.40;62.40;;;;;;5033337;28;19959;-73
2023/08/25 06:54:26;;;;;;;;;;;20.40;62.60;;;;;;5033100;28;19955;-73
2023/08/25 06:56:53;;;;;;;;;;;20.20;63.00;;;;;;5033392;28;19909;-72
2023/08/25 06:59:20;;;;;;;;;;;20.10;63.10;;;;;;5033454;28;20266;-73
2023/08/25 07:01:46;;;;;;;;;;;20.20;63.50;;;;;;5033403;28;20012;-73
2023/08/25 07:04:13;;;;;;;;;;;20.10;64.00;;;;;;5033288;28;20332;-72
2023/08/25 07:06:40;;;;;;;;;;;20.10;64.70;;;;;;5032102;28;19913;-73
2023/08/25 07:09:07;;;;;;;;;;;19.90;65.60;;;;;;5033271;28;19909;-71
2023/08/25 07:11:33;;;;;;;;;;;19.80;67.30;;;;;;5033179;28;20103;-72
2023/08/25 07:14:00;;;;;;;;;;;19.70;68.10;;;;;;5033210;28;19909;-73
2023/08/25 07:16:27;;;;;;;;;;;19.70;69.00;;;;;;5033283;28;19909;-72
2023/08/25 07:18:53;;;;;;;;;;;19.60;69.70;;;;;;5030836;28;19917;-72
2023/08/25 07:21:21;;;;;;;;;;;19.40;70.10;;;;;;5032913;28;19921;-73
2023/08/25 07:23:48;;;;;;;;;;;19.30;70.70;;;;;;5032776;28;19929;-72
2023/08/25 07:26:14;;;;;;;;;;;19.30;71.20;;;;;;5040443;28;20227;-72
2023/08/25 07:28:41;;;;;;;;;;;19.30;71.30;;;;;;5031721;28;20012;-72
2023/08/25 07:31:08;;;;;;;;;;;19.20;71.60;;;;;;5033029;28;19949;-72
2023/08/25 07:33:34;;;;;;;;;;;19.10;72.10;;;;;;5032728;28;20336;-72
2023/08/25 07:36:03;;;;;;;;;;;19.00;72.90;;;;;;5032564;28;19916;-72
2023/08/25 07:38:30;;;;;;;;;;;19.00;73.30;;;;;;5032740;28;19913;-72
2023/08/25 07:40:57;;;;;;;;;;;18.80;73.70;;;;;;5032642;28;20372;-72
2023/08/25 07:43:23;;;;;;;;;;;18.70;74.20;;;;;;5032714;28;19928;-72
2023/08/25 07:45:50;;;;;;;;;;;18.60;74.70;;;;;;5033238;28;19964;-72
2023/08/25 07:48:17;;;;;;;;;;;18.50;75.50;;;;;;5032840;28;20000;-72
2023/08/25 07:50:43;;;;;;;;;;;18.40;76.10;;;;;;5032866;28;20430;-72
2023/08/25 07:53:12;;;;;;;;;;;18.40;76.30;;;;;;5032402;28;19925;-71
2023/08/25 07:55:40;;;;;;;;;;;18.50;76.30;;;;;;5031752;28;20405;-72
2023/08/25 07:58:07;;;;;;;;;;;18.50;77.00;;;;;;5032674;28;19909;-71
2023/08/25 08:00:34;;;;;;;;;;;18.30;77.60;;;;;;5032358;28;20251;-72
2023/08/25 08:03:03;;;;;;;;;;;18.20;78.50;;;;;;5032701;28;19984;-71
2023/08/25 08:05:29;;;;;;;;;;;18.20;79.30;;;;;;5030304;28;20338;-72
2023/08/25 08:07:58;;;;;;;;;;;18.00;80.10;;;;;;5032463;28;19913;-72
2023/08/25 08:10:25;;;;;;;;;;;18.00;81.00;;;;;;5032377;28;20355;-72
2023/08/25 08:12:52;;;;;;;;;;;17.90;81.50;;;;;;5032615;28;19909;-72
2023/08/25 08:15:19;;;;;;;;;;;17.80;82.60;;;;;;5031812;28;19955;-73
2023/08/25 08:17:46;;;;;;;;;;;17.70;83.40;;;;;;5032493;28;19909;-73
2023/08/25 08:20:12;;;;;;;;;;;17.80;83.60;;;;;;5032530;28;19913;-73
2023/08/25 08:22:42;;;;;;;;;;;17.70;84.40;;;;;;5032823;28;19968;-73
2023/08/25 08:25:10;;;;;;;;;;;17.60;85.00;;;;;;5041593;28;19909;-73
2023/08/25 08:27:37;;;;;;;;;;;17.60;85.30;;;;;;5038532;28;19909;-73
2023/08/25 08:30:04;;;;;;;;;;;17.50;86.10;;;;;;5033955;28;19932;-72
2023/08/25 08:32:31;;;;;;;;;;;17.40;86.80;;;;;;5036804;28;19913;-72
2023/08/25 08:34:58;;;;;;;;;;;17.40;87.20;;;;;;5033870;28;20309;-72
2023/08/25 08:37:25;;;;;;;;;;;17.30;87.60;;;;;;5036111;28;19916;-72
2023/08/25 08:39:51;;;;;;;;;;;17.40;88.20;;;;;;5036056;28;19959;-73
2023/08/25 08:42:18;;;;;;;;;;;17.40;88.10;;;;;;5036123;28;19921;-73
2023/08/25 08:44:47;;;;;;;;;;;17.30;88.50;;;;;;5035667;28;19921;-72
2023/08/25 08:47:15;;;;;;;;;;;17.20;88.60;;;;;;5036165;28;19920;-72
2023/08/25 08:49:42;;;;;;;;;;;17.10;89.70;;;;;;5035919;28;19912;-72
2023/08/25 08:52:10;;;;;;;;;;;17.10;90.00;;;;;;5050748;28;19913;-72
2023/08/25 08:54:41;;;;;;;;;;;17.00;90.40;;;;;;5034439;28;19913;-71
2023/08/25 08:57:08;;;;;;;;;;;16.90;90.80;;;;;;5035998;28;19909;-71
2023/08/25 08:59:36;;;;;;;;;;;16.80;91.20;;;;;;5035627;28;19909;-73
2023/08/25 09:02:04;;;;;;;;;;;16.60;91.80;;;;;;5035396;28;19917;-73
2023/08/25 09:04:31;;;;;;;;;;;16.50;92.30;;;;;;5020913;28;19924;-72
2023/08/25 09:06:58;;;;;;;;;;;16.40;92.50;;;;;;5017458;28;19916;-72
2023/08/25 09:09:25;;;;;;;;;;;16.30;92.60;;;;;;5035224;28;19913;-71
2023/08/25 09:11:52;;;;;;;;;;;16.10;92.70;;;;;;5035573;28;19915;-73
2023/08/25 09:14:26;;;;;;;;;;;16.10;92.60;;;;;;5035153;28;19909;-73
2023/08/25 09:16:56;;;;;;;;;;;16.10;92.70;;;;;;5035599;28;20252;-73
2023/08/25 09:19:23;;;;;;;;;;;16.00;92.80;;;;;;5035306;28;19909;-73
2023/08/25 09:21:50;;;;;;;;;;;15.80;92.90;;;;;;5035096;28;19932;-73
2023/08/25 09:24:21;;;;;;;;;;;15.80;93.10;;;;;;5033959;28;19917;-73
2023/08/25 09:26:50;;;;;;;;;;;15.70;93.20;;;;;;5033263;28;19920;-71
2023/08/25 09:29:17;;;;;;;;;;;15.70;93.30;;;;;;5034417;28;20059;-71
2023/08/25 09:31:44;;;;;;;;;;;15.70;93.40;;;;;;5034445;28;20329;-72
2023/08/25 09:34:13;;;;;;;;;;;15.70;93.50;;;;;;5034030;28;19913;-72
2023/08/25 09:36:56;;;;;;;;;;;15.60;93.60;;;;;;5034391;28;19913;-72
2023/08/25 09:39:23;;;;;;;;;;;15.60;93.80;;;;;;5032752;28;19916;-72
2023/08/25 09:41:50;;;;;;;;;;;15.60;93.80;;;;;;5033444;28;20001;-71
2023/08/25 09:44:17;;;;;;;;;;;15.50;93.70;;;;;;5033896;28;20067;-72
2023/08/25 09:46:45;;;;;;;;;;;15.50;93.90;;;;;;5034356;28;20370;-72
2023/08/25 09:49:14;;;;;;;;;;;15.40;94.10;;;;;;5034349;28;19910;-73
2023/08/25 09:51:44;;;;;;;;;;;15.40;94.20;;;;;;5033965;28;19916;-72
2023/08/25 09:54:12;;;;;;;;;;;15.50;94.30;;;;;;5033938;28;19913;-73
2023/08/25 09:56:40;;;;;;;;;;;15.50;94.30;;;;;;5032727;28;19913;-72
2023/08/25 09:59:08;;;;;;;;;;;15.50;94.30;;;;;;5033752;28;19913;-72
2023/08/25 10:01:35;;;;;;;;;;;15.60;94.40;;;;;;5034255;28;19921;-71
2023/08/25 10:04:03;;;;;;;;;;;15.50;94.50;;;;;;5034045;28;20000;-72
2023/08/25 10:06:31;;;;;;;;;;;15.50;94.40;;;;;;5035254;28;20013;-72
2023/08/25 10:09:01;;;;;;;;;;;15.60;94.40;;;;;;5022804;28;19909;-72
2023/08/25 10:11:31;;;;;;;;;;;15.70;94.30;;;;;;5033780;28;20345;-72
2023/08/25 10:14:00;;;;;;;;;;;15.70;94.20;;;;;;5033562;28;20428;-72
2023/08/25 10:16:28;;;;;;;;;;;15.60;94.10;;;;;;5033499;28;19909;-72
2023/08/25 10:18:57;;;;;;;;;;;15.50;94.20;;;;;;5033649;28;19999;-72
2023/08/25 10:21:25;;;;;;;;;;;15.40;94.30;;;;;;5032232;28;19925;-72
2023/08/25 10:23:53;;;;;;;;;;;15.40;94.30;;;;;;5033353;28;19936;-72
2023/08/25 10:26:20;;;;;;;;;;;15.30;94.40;;;;;;5033208;28;19945;-72
2023/08/25 10:28:47;;;;;;;;;;;15.30;94.60;;;;;;5033477;28;19936;-72
2023/08/25 10:31:14;;;;;;;;;;;15.30;94.40;;;;;;5032024;28;19913;-72
2023/08/25 10:33:46;;;;;;;;;;;15.20;94.40;;;;;;5032871;28;19971;-72
2023/08/25 10:36:20;;;;;;;;;;;15.10;94.50;;;;;;5033395;28;19917;-72
2023/08/25 10:39:07;;;;;;;;;;;15.00;94.80;;;;;;5048751;28;19909;-72
2023/08/25 10:41:43;;;;;;;;;;;14.90;94.70;;;;;;5033216;28;19943;-72
2023/08/25 10:44:10;;;;;;;;;;;15.00;94.80;;;;;;5033079;28;19953;-72
2023/08/25 10:46:38;;;;;;;;;;;14.90;94.70;;;;;;5033285;28;19915;-72
2023/08/25 10:49:07;;;;;;;;;;;14.90;94.50;;;;;;5033325;28;20042;-72
2023/08/25 10:51:34;;;;;;;;;;;14.80;94.70;;;;;;5033273;28;20358;-72
2023/08/25 10:54:01;;;;;;;;;;;14.70;94.60;;;;;;5032881;28;20378;-72
2023/08/25 10:56:27;;;;;;;;;;;14.60;94.80;;;;;;5032931;28;20274;-72
2023/08/25 10:59:10;;;;;;;;;;;14.50;95.20;;;;;;5032578;28;20007;-72
2023/08/25 11:01:37;;;;;;;;;;;14.40;95.30;;;;;;5013203;28;19917;-72
2023/08/25 11:04:04;;;;;;;;;;;14.20;95.30;;;;;;5012914;28;19917;-72
2023/08/25 11:06:42;;;;;;;;;;;14.20;95.40;;;;;;5035879;28;20433;-72
2023/08/25 11:09:12;;;;;;;;;;;14.10;95.40;;;;;;5032637;28;19916;-72
2023/08/25 11:11:42;;;;;;;;;;;14.00;95.40;;;;;;5032880;28;19909;-72
2023/08/25 11:14:08;;;;;;;;;;;14.00;95.30;;;;;;5032519;28;20388;-72
2023/08/25 11:16:38;;;;;;;;;;;13.80;95.30;;;;;;5032574;28;19913;-72
2023/08/25 11:19:04;;;;;;;;;;;13.80;95.50;;;;;;5032971;28;20015;-72
2023/08/25 11:21:31;;;;;;;;;;;13.70;95.70;;;;;;5032487;28;19963;-71
2023/08/25 11:23:57;;;;;;;;;;;13.60;96.00;;;;;;5032009;28;20286;-72
2023/08/25 11:26:25;;;;;;;;;;;13.50;96.10;;;;;;5031471;28;19916;-72
2023/08/25 11:28:53;;;;;;;;;;;13.50;96.10;;;;;;5032505;28;19924;-72
2023/08/25 11:31:21;;;;;;;;;;;13.40;96.10;;;;;;5032746;28;19920;-71
2023/08/25 11:33:48;;;;;;;;;;;13.30;96.20;;;;;;5030583;28;20624;-72
2023/08/25 11:36:17;;;;;;;;;;;13.30;96.20;;;;;;5047795;28;19909;-72
2023/08/25 11:38:51;;;;;;;;;;;13.30;96.40;;;;;;5031297;28;19909;-72
2023/08/25 11:41:18;;;;;;;;;;;13.20;96.30;;;;;;5030901;28;20024;-72
2023/08/25 11:43:48;;;;;;;;;;;13.20;96.20;;;;;;5031040;28;19929;-72
2023/08/25 11:46:15;;;;;;;;;;;13.20;96.00;;;;;;5031114;28;19910;-72
2023/08/25 11:48:41;;;;;;;;;;;13.20;96.20;;;;;;5030785;28;19909;-73
2023/08/25 11:51:15;;;;;;;;;;;13.20;96.20;;;;;;5031011;28;20160;-71
2023/08/25 11:53:42;;;;;;;;;;;13.30;96.30;;;;;;5032364;28;19909;-71
2023/08/25 11:56:13;;;;;;;;;;;13.30;96.80;;;;;;5032813;28;20392;-71
2023/08/25 11:58:40;;;;;;;;;;;13.50;96.80;;;;;;5039087;28;19913;-71
2023/08/25 12:01:07;;;;;;;;;;;13.50;96.80;;;;;;5052456;28;19970;-72
2023/08/25 12:03:34;;;;;;;;;;;13.60;96.70;;;;;;5052563;28;19930;-72
2023/08/25 12:06:08;;;;;;;;;;;13.70;96.80;;;;;;5047495;28;19913;-72
2023/08/25 12:08:35;;;;;;;;;;;13.70;96.90;;;;;;5036654;28;20385;-72
2023/08/25 12:11:02;;;;;;;;;;;13.80;96.90;;;;;;5036301;28;20329;-72
2023/08/25 12:13:31;;;;;;;;;;;14.00;97.10;;;;;;5036620;28;19909;-72
2023/08/25 12:15:58;;;;;;;;;;;14.00;97.00;;;;;;5036444;28;20389;-72
2023/08/25 12:18:38;;;;;;;;;;;14.00;97.00;;;;;;5036688;28;19909;-72
2023/08/25 12:21:05;;;;;;;;;;;14.00;97.20;;;;;;5036506;28;19947;-72
2023/08/25 12:23:43;;;;;;;;;;;14.10;97.20;;;;;;5036375;28;19909;-72
2023/08/25 12:26:13;;;;;;;;;;;14.20;96.50;;;;;;5036103;28;19913;-72
2023/08/25 12:28:42;;;;;;;;;;;14.20;96.10;;;;;;5036529;28;19913;-72
2023/08/25 12:31:09;;;;;;;;;;;14.10;96.60;;;;;;5036341;28;19916;-72
2023/08/25 12:33:36;;;;;;;;;;;14.30;96.00;;;;;;5016558;28;19910;-72
2023/08/25 12:36:02;;;;;;;;;;;14.10;96.10;;;;;;5015185;28;19956;-72
2023/08/25 12:38:32;;;;;;;;;;;13.90;96.30;;;;;;5016409;28;19909;-72
2023/08/25 12:40:58;;;;;;;;;;;13.90;96.80;;;;;;5016252;28;20502;-71
2023/08/25 12:43:25;;;;;;;;;;;13.90;96.50;;;;;;5034733;28;20370;-72
2023/08/25 12:45:52;;;;;;;;;;;13.90;96.50;;;;;;5034722;28;19913;-71
2023/08/25 12:48:23;;;;;;;;;;;13.90;96.90;;;;;;5034284;28;20413;-71
2023/08/25 12:50:49;;;;;;;;;;;13.90;97.30;;;;;;5035484;28;19955;-71
2023/08/25 12:53:16;;;;;;;;;;;14.00;97.40;;;;;;5035181;28;19909;-71
2023/08/25 12:55:44;;;;;;;;;;;14.10;97.30;;;;;;5035442;28;20324;-71
2023/08/25 12:58:10;;;;;;;;;;;14.10;97.20;;;;;;5035646;28;19975;-71
2023/08/25 13:00:37;;;;;;;;;;;14.10;97.30;;;;;;5035792;28;19909;-71
2023/08/25 13:03:04;;;;;;;;;;;14.10;97.20;;;;;;5034383;28;19999;-71
2023/08/25 13:05:30;;;;;;;;;;;14.20;97.40;;;;;;5035878;28;19939;-71
2023/08/25 13:07:57;;;;;;;;;;;14.20;97.20;;;;;;5035464;28;20385;-71
2023/08/25 13:10:25;;;;;;;;;;;14.10;97.30;;;;;;5035848;28;19917;-72
2023/08/25 13:12:51;;;;;;;;;;;14.10;97.40;;;;;;5035387;28;19967;-72
2023/08/25 13:15:18;;;;;;;;;;;14.10;97.10;;;;;;5035221;28;19913;-72
2023/08/25 13:17:44;;;;;;;;;;;14.00;97.30;;;;;;5034573;28;19932;-72
2023/08/25 13:20:11;;;;;;;;;;;14.00;97.30;;;;;;5035351;28;19909;-72
2023/08/25 13:22:39;;;;;;;;;;;13.90;97.30;;;;;;5034980;28;19935;-72
2023/08/25 13:25:05;;;;;;;;;;;14.00;97.40;;;;;;5035481;28;19913;-72
2023/08/25 13:27:32;;;;;;;;;;;13.90;97.00;;;;;;5035288;28;19916;-72
2023/08/25 13:29:59;;;;;;;;;;;13.90;97.30;;;;;;5035407;28;19913;-72
2023/08/25 13:32:25;;;;;;;;;;;14.00;96.90;;;;;;5035335;28;20369;-72
2023/08/25 13:34:52;;;;;;;;;;;14.00;97.20;;;;;;5033097;28;19967;-72
2023/08/25 13:37:19;;;;;;;;;;;13.90;97.00;;;;;;5035269;28;19909;-72
2023/08/25 13:39:47;;;;;;;;;;;13.80;97.20;;;;;;5035060;28;19913;-72
2023/08/25 13:42:14;;;;;;;;;;;13.70;97.30;;;;;;5035070;28;19921;-72
2023/08/25 13:44:41;;;;;;;;;;;13.70;97.40;;;;;;5032865;28;19948;-73
2023/08/25 13:47:08;;;;;;;;;;;13.60;97.30;;;;;;5034889;28;20421;-72
2023/08/25 13:49:36;;;;;;;;;;;13.60;97.50;;;;;;5033256;28;20366;-72
2023/08/25 13:52:03;;;;;;;;;;;13.50;97.60;;;;;;5035044;28;19916;-72
2023/08/25 13:54:30;;;;;;;;;;;13.50;97.40;;;;;;5034410;28;19960;-72
2023/08/25 13:56:56;;;;;;;;;;;13.40;97.40;;;;;;5034681;28;19909;-72
2023/08/25 13:59:23;;;;;;;;;;;13.40;97.50;;;;;;5047227;28;19909;-71
2023/08/25 14:01:50;;;;;;;;;;;13.40;97.40;;;;;;5054600;28;19921;-71
2023/08/25 14:04:17;;;;;;;;;;;13.30;97.60;;;;;;5054097;28;19948;-71
2023/08/25 14:06:43;;;;;;;;;;;13.20;97.80;;;;;;5047530;28;19909;-71
2023/08/25 14:09:10;;;;;;;;;;;13.10;97.80;;;;;;5034660;28;20389;-71
2023/08/25 14:11:37;;;;;;;;;;;13.00;97.90;;;;;;5034395;28;20420;-71
2023/08/25 14:14:03;;;;;;;;;;;12.90;97.70;;;;;;5032567;28;19910;-72
2023/08/25 14:16:30;;;;;;;;;;;12.90;97.80;;;;;;5034075;28;20281;-71
2023/08/25 14:18:57;;;;;;;;;;;12.80;97.80;;;;;;5034307;28;19959;-72